Time;durP1;ratioP1;P1;durP2;ratioP2;P2;SDS_P1;SDS_P2;PMS_P1;PMS_P2;Temp;Humidity;BMP_temperature;BMP_pressure;BME280_temperature;BME280_humidity;BME280_pressure;Samples;Min_cycle;Max_cycle;Signal;HPM_P1;HPM_P2
2021/04/09 00:00:12;;;;;;;11.82;5.28;;;;;;;3.80;63.95;100411.19;5016033;28;20058;-69
2021/04/09 00:02:41;;;;;;;10.18;5.78;;;;;;;3.78;64.30;100410.38;5015840;28;20056;-70
2021/04/09 00:05:10;;;;;;;13.07;6.20;;;;;;;3.84;63.51;100404.03;5015960;28;20053;-69
2021/04/09 00:07:36;;;;;;;11.80;6.10;;;;;;;3.84;63.81;100398.75;5015634;28;20057;-70
2021/04/09 00:10:08;;;;;;;15.63;5.53;;;;;;;3.87;63.41;100409.22;5015630;28;20104;-69
2021/04/09 00:12:36;;;;;;;12.15;6.05;;;;;;;3.82;64.34;100397.94;5015707;28;20053;-68
2021/04/09 00:15:03;;;;;;;12.27;5.93;;;;;;;3.79;64.21;100393.63;5015549;28;20332;-70
2021/04/09 00:17:30;;;;;;;16.67;6.50;;;;;;;3.85;63.49;100391.69;5015708;28;20080;-69
2021/04/09 00:19:56;;;;;;;15.63;7.13;;;;;;;3.83;63.93;100398.78;5015399;28;20054;-69
2021/04/09 00:22:23;;;;;;;12.45;6.25;;;;;;;3.85;64.21;100395.19;5014622;28;20058;-69
2021/04/09 00:24:49;;;;;;;13.00;6.35;;;;;;;3.86;64.14;100398.72;5014723;28;20116;-70
2021/04/09 00:27:15;;;;;;;12.27;5.95;;;;;;;3.85;64.41;100397.84;5015431;28;20053;-70
2021/04/09 00:29:41;;;;;;;10.95;5.88;;;;;;;3.92;64.25;100388.81;5014075;28;20111;-70
2021/04/09 00:32:08;;;;;;;10.38;5.82;;;;;;;4.00;63.06;100380.69;5014677;28;20049;-69
2021/04/09 00:34:34;;;;;;;11.93;5.68;;;;;;;4.02;63.14;100377.97;5013975;28;20577;-70
2021/04/09 00:37:01;;;;;;;11.70;5.70;;;;;;;4.04;63.08;100378.81;5015418;28;20346;-70
2021/04/09 00:39:27;;;;;;;18.75;6.00;;;;;;;4.01;62.79;100365.69;5015218;28;20052;-71
2021/04/09 00:41:53;;;;;;;11.20;5.65;;;;;;;4.05;63.16;100373.47;5014880;28;20053;-70
2021/04/09 00:44:19;;;;;;;11.10;5.63;;;;;;;4.07;63.04;100373.41;4997670;28;20053;-69
2021/04/09 00:46:46;;;;;;;14.75;6.70;;;;;;;4.13;62.47;100364.47;5015052;28;20428;-69
2021/04/09 00:49:12;;;;;;;15.82;6.28;;;;;;;4.14;62.45;100359.09;5014019;28;20535;-70
2021/04/09 00:51:38;;;;;;;12.65;6.55;;;;;;;4.11;62.96;100353.94;5015067;28;20423;-69
2021/04/09 00:54:07;;;;;;;16.00;6.38;;;;;;;4.12;62.80;100353.03;5014947;28;20050;-69
2021/04/09 00:56:34;;;;;;;10.18;6.32;;;;;;;4.15;63.34;100358.19;5014819;28;20149;-70
2021/04/09 00:59:02;;;;;;;10.88;6.40;;;;;;;4.17;62.40;100356.38;5014831;28;20054;-70
2021/04/09 01:01:28;;;;;;;11.77;6.13;;;;;;;4.14;62.28;100345.91;5014919;28;20053;-70
2021/04/09 01:03:55;;;;;;;17.60;6.75;;;;;;;4.17;62.23;100348.47;5014008;28;20062;-69
2021/04/09 01:06:23;;;;;;;10.25;6.15;;;;;;;4.18;62.19;100352.84;5014960;28;20129;-70
2021/04/09 01:08:50;;;;;;;11.65;6.72;;;;;;;4.18;62.48;100346.66;5015057;28;20053;-70
2021/04/09 01:11:18;;;;;;;12.05;6.22;;;;;;;4.21;61.94;100349.22;5014803;28;20478;-69
2021/04/09 01:13:45;;;;;;;15.05;7.07;;;;;;;4.16;62.40;100338.81;5013723;28;20137;-70
2021/04/09 01:16:23;;;;;;;11.50;6.78;;;;;;;4.17;62.39;100339.66;5014746;28;20116;-70
2021/04/09 01:18:58;;;;;;;9.80;6.03;;;;;;;4.18;62.63;100330.81;5014696;28;20149;-69
2021/04/09 01:21:31;;;;;;;15.88;6.32;;;;;;;4.24;62.18;100340.34;5015160;28;20054;-69
2021/04/09 01:24:07;;;;;;;12.13;6.57;;;;;;;4.13;62.20;100328.31;5014611;28;20301;-69
2021/04/09 01:26:39;;;;;;;13.57;6.75;;;;;;;4.29;61.62;100331.34;5014841;28;20054;-69
2021/04/09 01:29:27;;;;;;;11.75;6.47;;;;;;;4.27;61.95;100332.31;5014579;28;20045;-70
2021/04/09 01:32:06;;;;;;;11.63;6.82;;;;;;;4.21;62.27;100330.75;5014213;28;20045;-70
2021/04/09 01:34:37;;;;;;;13.07;7.60;;;;;;;4.16;62.11;100330.00;5018247;28;20136;-70
2021/04/09 01:37:13;;;;;;;15.73;7.70;;;;;;;4.07;62.77;100321.47;5017140;28;20054;-69
2021/04/09 01:39:51;;;;;;;16.35;6.97;;;;;;;4.15;62.18;100318.56;5018045;28;20270;-69
2021/04/09 01:42:19;;;;;;;13.55;8.05;;;;;;;4.18;62.37;100329.06;5018301;28;20428;-69
2021/04/09 01:44:48;;;;;;;15.23;6.70;;;;;;;4.12;62.73;100310.75;5018085;28;20057;-69
2021/04/09 01:47:15;;;;;;;15.00;7.93;;;;;;;4.14;62.61;100319.50;5018253;28;20054;-69
2021/04/09 01:49:42;;;;;;;16.40;8.35;;;;;;;4.17;62.16;100316.75;5017921;28;20050;-69
2021/04/09 01:52:11;;;;;;;10.85;7.28;;;;;;;4.17;62.23;100310.59;5018332;28;20061;-69
2021/04/09 01:54:39;;;;;;;11.98;7.07;;;;;;;4.10;62.95;100307.31;5017977;28;20137;-71
2021/04/09 01:57:10;;;;;;;12.45;6.90;;;;;;;4.16;62.21;100300.94;5021935;28;20058;-69
2021/04/09 01:59:39;;;;;;;15.05;7.53;;;;;;;4.15;62.44;100305.34;5019444;28;20145;-70
2021/04/09 02:02:06;;;;;;;14.00;7.35;;;;;;;4.13;62.55;100299.28;5017081;28;20053;-70
2021/04/09 02:04:34;;;;;;;13.38;7.85;;;;;;;4.16;62.41;100293.91;5017933;28;20054;-70
2021/04/09 02:07:02;;;;;;;16.40;7.03;;;;;;;4.14;62.13;100279.88;5017830;28;20423;-70
2021/04/09 02:09:31;;;;;;;14.73;7.47;;;;;;;4.21;61.89;100288.47;5017812;28;20127;-70
2021/04/09 02:11:59;;;;;;;16.90;6.82;;;;;;;4.21;61.98;100289.31;5017674;28;20054;-70
2021/04/09 02:14:27;;;;;;;12.48;7.75;;;;;;;4.15;62.98;100286.03;5017683;28;20159;-70
2021/04/09 02:16:55;;;;;;;17.38;9.73;;;;;;;4.18;62.70;100289.44;5017442;28;20054;-70
2021/04/09 02:19:24;;;;;;;12.55;7.15;;;;;;;4.18;61.74;100286.78;5017563;28;20398;-70
2021/04/09 02:21:51;;;;;;;12.88;7.45;;;;;;;4.26;61.91;100285.66;5017468;28;20406;-69
2021/04/09 02:24:18;;;;;;;14.02;7.32;;;;;;;4.30;61.89;100279.38;5017644;28;20062;-71
2021/04/09 02:26:44;;;;;;;15.35;7.57;;;;;;;4.18;62.05;100268.28;5017604;28;20112;-70
2021/04/09 02:29:11;;;;;;;12.95;8.07;;;;;;;4.07;62.20;100255.44;5017323;28;20069;-70
2021/04/09 02:31:39;;;;;;;16.67;7.57;;;;;;;4.16;61.92;100256.91;5016177;28;20100;-70
2021/04/09 02:34:05;;;;;;;19.65;8.15;;;;;;;4.19;62.50;100263.84;5018055;28;20046;-69
2021/04/09 02:36:32;;;;;;;14.82;7.22;;;;;;;4.18;62.21;100260.38;5017595;28;20050;-70
2021/04/09 02:39:05;;;;;;;11.30;7.25;;;;;;;4.18;62.19;100267.41;5017355;28;20056;-70
2021/04/09 02:41:35;;;;;;;15.63;7.75;;;;;;;4.14;62.88;100258.72;5017291;28;20050;-70
2021/04/09 02:44:02;;;;;;;12.30;8.55;;;;;;;4.13;62.09;100264.94;5016716;28;20058;-71
2021/04/09 02:46:42;;;;;;;15.95;8.45;;;;;;;4.13;62.54;100246.44;5017352;28;20054;-70
2021/04/09 02:49:13;;;;;;;13.45;8.02;;;;;;;4.13;62.63;100258.81;5016573;28;20057;-70
2021/04/09 02:51:42;;;;;;;15.13;7.10;;;;;;;4.13;62.20;100254.38;5017340;28;20061;-70
2021/04/09 02:54:16;;;;;;;14.90;7.93;;;;;;;4.13;62.67;100249.09;5017384;28;20132;-70
2021/04/09 02:56:42;;;;;;;13.05;7.43;;;;;;;4.08;63.08;100240.44;5017046;28;20061;-70
2021/04/09 02:59:12;;;;;;;11.95;6.90;;;;;;;4.05;62.72;100244.03;5017129;28;20107;-70
2021/04/09 03:01:41;;;;;;;15.15;7.57;;;;;;;4.11;62.69;100245.63;5032435;28;20123;-70
2021/04/09 03:04:08;;;;;;;13.65;7.72;;;;;;;4.10;62.57;100248.31;5016942;28;20054;-70
2021/04/09 03:06:41;;;;;;;14.95;7.05;;;;;;;4.14;62.36;100239.38;5016994;28;20060;-71
2021/04/09 03:09:09;;;;;;;19.08;8.35;;;;;;;4.14;62.45;100239.38;5016894;28;20046;-70
2021/04/09 03:11:35;;;;;;;12.23;7.30;;;;;;;4.16;62.06;100238.44;5016899;28;20060;-70
2021/04/09 03:14:02;;;;;;;13.57;7.63;;;;;;;4.05;62.38;100204.41;5015510;28;20056;-70
2021/04/09 03:16:34;;;;;;;17.35;9.20;;;;;;;4.24;61.90;100229.38;5016788;28;20111;-70
2021/04/09 03:19:00;;;;;;;13.75;7.70;;;;;;;4.16;62.63;100219.06;5015709;28;20054;-70
2021/04/09 03:21:26;;;;;;;11.88;7.75;;;;;;;4.12;62.92;100217.41;5016660;28;20144;-70
2021/04/09 03:23:52;;;;;;;10.70;6.85;;;;;;;4.10;62.58;100209.56;5016734;28;20057;-71
2021/04/09 03:26:18;;;;;;;11.05;7.38;;;;;;;4.13;62.44;100216.53;5016670;28;20057;-70
2021/04/09 03:28:44;;;;;;;14.30;7.60;;;;;;;4.19;62.10;100214.53;5016194;28;20490;-70
2021/04/09 03:31:10;;;;;;;13.02;6.97;;;;;;;4.21;61.91;100204.78;5016475;28;20084;-69
2021/04/09 03:33:37;;;;;;;13.57;6.85;;;;;;;4.18;62.65;100211.94;5015429;28;20140;-70
2021/04/09 03:36:03;;;;;;;14.55;7.07;;;;;;;4.21;61.72;100211.84;5015293;28;20054;-69
2021/04/09 03:38:29;;;;;;;12.63;7.22;;;;;;;4.24;61.73;100197.69;5016589;28;20046;-69
2021/04/09 03:40:55;;;;;;;9.43;6.93;;;;;;;4.20;61.90;100203.03;5016399;28;20112;-69
2021/04/09 03:43:22;;;;;;;13.85;7.63;;;;;;;4.20;62.09;100200.41;5015429;28;20108;-69
2021/04/09 03:45:48;;;;;;;13.10;7.07;;;;;;;4.16;62.71;100203.22;5016268;28;20053;-70
2021/04/09 03:48:15;;;;;;;13.30;7.90;;;;;;;4.15;62.34;100204.97;5016126;28;20081;-69
2021/04/09 03:50:41;;;;;;;15.25;6.32;;;;;;;4.14;62.55;100197.97;5015974;28;20081;-69
2021/04/09 03:53:07;;;;;;;12.43;6.78;;;;;;;4.18;62.59;100198.72;5015250;28;20050;-69
2021/04/09 03:55:34;;;;;;;13.02;7.10;;;;;;;4.13;62.48;100190.13;5014932;28;20423;-69
2021/04/09 03:58:00;;;;;;;11.65;6.97;;;;;;;4.12;62.81;100193.66;5015914;28;20050;-70
2021/04/09 04:00:26;;;;;;;14.05;7.57;;;;;;;4.11;62.62;100190.16;5016066;28;20062;-70
2021/04/09 04:02:54;;;;;;;13.52;8.07;;;;;;;4.08;62.39;100187.59;5015988;28;20100;-70
2021/04/09 04:05:20;;;;;;;12.00;7.00;;;;;;;4.13;62.24;100193.59;5015809;28;20054;-70
2021/04/09 04:07:47;;;;;;;12.75;7.53;;;;;;;4.15;62.68;100194.41;5015780;28;20050;-70
2021/04/09 04:10:13;;;;;;;10.18;6.63;;;;;;;4.08;62.71;100184.97;5015687;28;20046;-70
2021/04/09 04:12:40;;;;;;;14.50;7.05;;;;;;;4.15;63.07;100190.91;5015582;28;20053;-71
2021/04/09 04:15:07;;;;;;;16.83;7.20;;;;;;;4.11;62.82;100192.81;5015675;28;20045;-70
2021/04/09 04:17:33;;;;;;;12.73;6.20;;;;;;;4.08;63.53;100184.97;5015592;28;20053;-71
2021/04/09 04:19:59;;;;;;;16.98;7.20;;;;;;;4.11;62.87;100190.16;5015850;28;20135;-71
2021/04/09 04:22:26;;;;;;;11.40;6.50;;;;;;;4.19;62.29;100184.59;5015490;28;20196;-70
2021/04/09 04:24:53;;;;;;;17.83;6.47;;;;;;;4.24;62.35;100190.59;5015514;28;20054;-71
2021/04/09 04:27:19;;;;;;;12.35;5.97;;;;;;;4.31;62.09;100178.06;5015578;28;20373;-70
2021/04/09 04:29:45;;;;;;;12.57;6.00;;;;;;;4.30;62.51;100177.19;5015645;28;20046;-69
2021/04/09 04:32:11;;;;;;;16.63;7.78;;;;;;;4.30;63.09;100176.34;5015407;28;20100;-70
2021/04/09 04:34:37;;;;;;;11.60;6.00;;;;;;;4.38;61.89;100174.28;5014225;28;20104;-70
2021/04/09 04:37:05;;;;;;;11.35;6.43;;;;;;;4.41;61.66;100162.75;5015343;28;20054;-71
2021/04/09 04:39:31;;;;;;;12.05;5.65;;;;;;;4.54;61.04;100164.03;5015741;28;20058;-70
2021/04/09 04:41:57;;;;;;;10.40;5.65;;;;;;;4.59;60.73;100150.63;5015583;28;20108;-70
2021/04/09 04:44:23;;;;;;;11.85;5.60;;;;;;;4.68;60.78;100166.16;5015275;28;20060;-70
2021/04/09 04:46:49;;;;;;;11.88;6.32;;;;;;;4.76;60.78;100164.09;5015441;28;20050;-70
2021/04/09 04:49:20;;;;;;;13.80;6.70;;;;;;;4.82;60.79;100163.03;5015492;28;20042;-70
2021/04/09 04:51:46;;;;;;;12.68;6.47;;;;;;;4.84;60.61;100157.66;5014142;28;20050;-70
2021/04/09 04:54:12;;;;;;;12.10;6.07;;;;;;;4.96;59.76;100154.56;5014106;28;20057;-70
2021/04/09 04:56:39;;;;;;;10.15;5.40;;;;;;;4.97;60.36;100155.44;5014983;28;20061;-70
2021/04/09 04:59:05;;;;;;;13.57;6.20;;;;;;;5.06;59.30;100149.78;5015165;28;20046;-69
2021/04/09 05:01:31;;;;;;;12.85;5.70;;;;;;;5.09;59.35;100152.31;5030482;28;20050;-70
2021/04/09 05:03:57;;;;;;;13.68;6.35;;;;;;;5.13;59.35;100155.72;5015336;28;20076;-69
2021/04/09 05:06:26;;;;;;;10.32;5.55;;;;;;;5.17;59.95;100152.00;5015373;28;20061;-70
2021/04/09 05:08:52;;;;;;;13.43;6.18;;;;;;;5.09;60.39;100148.78;5018956;28;20053;-70
2021/04/09 05:11:18;;;;;;;14.38;6.63;;;;;;;5.07;59.50;100142.72;5019503;28;20112;-69
2021/04/09 05:13:45;;;;;;;12.65;6.00;;;;;;;5.13;59.79;100145.97;5018917;28;20046;-69
2021/04/09 05:16:11;;;;;;;12.07;5.95;;;;;;;5.09;59.72;100148.78;5019013;28;20435;-69
2021/04/09 05:18:37;;;;;;;13.82;6.05;;;;;;;5.09;60.09;100154.09;5019162;28;20100;-70
2021/04/09 05:21:06;;;;;;;15.68;6.53;;;;;;;5.05;60.81;100147.22;5017894;28;20440;-69
2021/04/09 05:23:32;;;;;;;14.82;6.20;;;;;;;5.00;60.46;100150.88;5018755;28;20119;-69
2021/04/09 05:25:59;;;;;;;12.02;6.63;;;;;;;5.09;60.49;100149.66;5018940;28;20054;-68
2021/04/09 05:28:25;;;;;;;14.57;6.50;;;;;;;5.16;59.81;100151.16;5019410;28;20129;-70
2021/04/09 05:30:52;;;;;;;9.75;6.13;;;;;;;5.21;59.82;100150.09;5018918;28;20109;-69
2021/04/09 05:33:18;;;;;;;13.65;6.72;;;;;;;5.19;59.37;100150.19;5002388;28;20109;-70
2021/04/09 05:35:46;;;;;;;14.35;6.43;;;;;;;5.24;59.43;100152.63;5020439;28;20058;-69
2021/04/09 05:38:12;;;;;;;10.45;6.30;;;;;;;5.32;59.17;100155.00;5018851;28;20045;-70
2021/04/09 05:40:39;;;;;;;13.98;6.65;;;;;;;5.34;59.64;100154.00;5017634;28;20049;-69
2021/04/09 05:43:07;;;;;;;10.50;6.25;;;;;;;5.38;60.14;100157.38;5018474;28;20073;-71
2021/04/09 05:45:33;;;;;;;13.77;7.28;;;;;;;5.35;60.11;100146.94;5018810;28;20054;-72
2021/04/09 05:48:06;;;;;;;10.70;6.18;;;;;;;5.49;58.87;100156.97;5018122;28;20054;-72
2021/04/09 05:50:33;;;;;;;12.75;6.53;;;;;;;5.55;59.23;100160.22;5018713;28;20065;-71
2021/04/09 05:52:59;;;;;;;13.32;6.35;;;;;;;5.57;58.44;100160.16;5018253;28;20056;-73
2021/04/09 05:55:26;;;;;;;12.65;6.05;;;;;;;5.56;58.92;100143.41;5014873;28;20065;-73
2021/04/09 05:57:52;;;;;;;12.75;6.47;;;;;;;5.69;59.04;100159.69;5009477;28;20058;-72
2021/04/09 06:00:19;;;;;;;12.10;6.32;;;;;;;5.79;58.85;100152.22;5017888;28;20371;-73
2021/04/09 06:02:46;;;;;;;11.05;6.38;;;;;;;5.85;58.54;100157.25;5018364;28;20060;-74
2021/04/09 06:05:12;;;;;;;9.07;5.78;;;;;;;5.84;57.82;100147.56;5018299;28;20049;-73
2021/04/09 06:07:38;;;;;;;12.32;6.85;;;;;;;5.82;58.26;100156.50;5018458;28;20054;-72
2021/04/09 06:10:06;;;;;;;15.52;6.22;;;;;;;5.95;58.60;100149.78;5018054;28;20344;-73
2021/04/09 06:12:33;;;;;;;9.48;6.25;;;;;;;5.95;58.42;100152.41;5017787;28;20053;-73
2021/04/09 06:15:09;;;;;;;12.07;7.05;;;;;;;6.00;58.44;100157.56;5018225;28;20049;-70
2021/04/09 06:17:35;;;;;;;13.43;7.03;;;;;;;6.01;58.04;100148.66;5017999;28;20423;-72
2021/04/09 06:20:04;;;;;;;13.00;6.45;;;;;;;6.06;57.99;100153.81;5016660;28;20132;-70
2021/04/09 06:22:30;;;;;;;11.93;6.55;;;;;;;6.11;57.90;100150.03;5018093;28;20120;-69
2021/04/09 06:24:57;;;;;;;12.30;7.10;;;;;;;6.19;57.47;100143.53;5016672;28;20054;-69
2021/04/09 06:27:23;;;;;;;14.43;6.80;;;;;;;6.21;57.02;100144.34;5015630;28;20050;-70
2021/04/09 06:29:49;;;;;;;15.27;6.78;;;;;;;6.29;56.90;100138.69;5016658;28;20077;-70
2021/04/09 06:32:16;;;;;;;14.00;6.40;;;;;;;6.33;56.94;100135.00;5017279;28;20104;-72
2021/04/09 06:34:42;;;;;;;17.33;6.18;;;;;;;6.39;56.80;100130.25;5015704;28;20103;-71
2021/04/09 06:37:09;;;;;;;16.05;7.35;;;;;;;6.45;56.06;100125.63;5017251;28;20060;-70
2021/04/09 06:39:35;;;;;;;15.73;6.57;;;;;;;6.60;55.91;100137.34;5016941;28;20050;-69
2021/04/09 06:42:04;;;;;;;13.10;6.65;;;;;;;6.62;56.14;100133.69;5032592;28;20053;-70
2021/04/09 06:44:31;;;;;;;11.70;6.90;;;;;;;6.64;56.03;100130.97;5017361;28;20064;-70
2021/04/09 06:46:59;;;;;;;17.95;6.47;;;;;;;6.64;56.08;100126.53;5016193;28;20046;-69
2021/04/09 06:49:25;;;;;;;12.95;6.45;;;;;;;6.73;56.08;100127.91;5017099;28;20053;-70
2021/04/09 06:51:51;;;;;;;13.98;6.22;;;;;;;6.78;55.49;100122.38;5017194;28;20391;-70
2021/04/09 06:54:18;;;;;;;12.35;6.00;;;;;;;6.92;54.92;100127.06;5016244;28;20090;-70
2021/04/09 06:56:46;;;;;;;11.45;6.72;;;;;;;6.91;55.15;100128.84;5016983;28;20071;-71
2021/04/09 06:59:16;;;;;;;14.77;7.20;;;;;;;6.90;55.17;100126.25;5015876;28;20485;-70
2021/04/09 07:01:47;;;;;;;13.55;6.45;;;;;;;6.96;55.16;100127.78;5017155;28;20057;-71
2021/04/09 07:04:14;;;;;;;16.65;6.10;;;;;;;7.06;54.20;100127.28;5016896;28;20057;-71
2021/04/09 07:06:40;;;;;;;12.68;6.00;;;;;;;7.00;55.13;100135.53;4996926;28;20353;-71
2021/04/09 07:09:07;;;;;;;14.10;6.20;;;;;;;7.02;55.77;100131.00;4996297;28;20055;-70
2021/04/09 07:11:40;;;;;;;17.63;6.90;;;;;;;7.06;53.66;100129.06;4996226;28;20050;-72
2021/04/09 07:14:06;;;;;;;13.88;6.55;;;;;;;7.06;53.94;100123.75;4997108;28;20053;-70
2021/04/09 07:16:35;;;;;;;21.23;7.30;;;;;;;7.12;54.29;100126.13;4997032;28;20061;-71
2021/04/09 07:19:05;;;;;;;11.60;5.95;;;;;;;7.10;54.00;100111.19;4996597;28;20057;-71
2021/04/09 07:21:36;;;;;;;20.35;7.07;;;;;;;7.15;54.57;100115.34;4997004;28;20059;-71
2021/04/09 07:24:14;;;;;;;15.80;6.28;;;;;;;7.22;54.15;100118.59;4996835;28;20091;-70
2021/04/09 07:26:48;;;;;;;13.65;6.93;;;;;;;7.27;53.65;100113.03;4996605;28;20057;-71
2021/04/09 07:29:36;;;;;;;14.50;6.53;;;;;;;7.35;53.75;100113.53;4996561;28;20057;-70
2021/04/09 07:32:09;;;;;;;14.32;6.25;;;;;;;7.41;54.04;100112.41;4996156;28;20062;-70
2021/04/09 07:34:52;;;;;;;11.00;6.03;;;;;;;7.51;53.04;100118.13;4996918;28;20108;-70
2021/04/09 07:37:20;;;;;;;11.90;7.00;;;;;;;7.62;53.13;100110.47;4996867;28;20050;-70
2021/04/09 07:39:51;;;;;;;8.77;5.20;;;;;;;7.72;52.77;100111.75;4996559;28;20046;-70
2021/04/09 07:42:35;;;;;;;16.00;6.25;;;;;;;7.74;52.59;100109.84;4995707;28;20113;-70
2021/04/09 07:45:11;;;;;;;19.60;7.38;;;;;;;7.87;53.15;100117.22;4996883;28;20137;-70
2021/04/09 07:47:39;;;;;;;12.55;6.53;;;;;;;7.97;52.77;100112.28;5011935;28;20054;-70
2021/04/09 07:50:11;;;;;;;12.05;6.20;;;;;;;8.06;51.24;100101.19;4996616;28;20104;-70
2021/04/09 07:52:39;;;;;;;12.20;5.82;;;;;;;8.16;51.37;100106.88;4996623;28;20062;-69
2021/04/09 07:55:13;;;;;;;12.00;6.25;;;;;;;8.16;51.32;100101.56;4996532;28;20356;-69
2021/04/09 07:57:40;;;;;;;10.90;5.30;;;;;;;8.21;50.62;100109.28;4995562;28;20396;-70
2021/04/09 08:00:27;;;;;;;16.38;6.50;;;;;;;8.25;50.86;100110.88;4996259;28;20081;-70
2021/04/09 08:02:55;;;;;;;11.20;5.75;;;;;;;8.32;51.14;100106.09;4996190;28;20054;-69
2021/04/09 08:05:26;;;;;;;12.23;6.25;;;;;;;8.29;51.31;100102.66;4996112;28;20359;-70
2021/04/09 08:07:53;;;;;;;10.60;5.75;;;;;;;8.34;52.17;100090.91;4996354;28;20054;-70
2021/04/09 08:10:29;;;;;;;10.57;5.90;;;;;;;8.50;51.07;100097.13;4996397;28;20076;-70
2021/04/09 08:12:57;;;;;;;10.95;5.85;;;;;;;8.58;50.78;100117.16;4996258;28;20491;-69
2021/04/09 08:15:29;;;;;;;11.60;6.28;;;;;;;8.60;49.98;100100.19;4996052;28;20050;-69
2021/04/09 08:18:11;;;;;;;9.77;5.72;;;;;;;8.65;50.65;100108.78;4995155;28;20344;-70
2021/04/09 08:20:43;;;;;;;16.23;5.72;;;;;;;8.76;50.11;100102.88;4996178;28;20440;-70
2021/04/09 08:23:15;;;;;;;13.95;6.13;;;;;;;8.77;50.07;100109.91;4996624;28;20058;-69
2021/04/09 08:25:43;;;;;;;18.90;6.40;;;;;;;8.88;50.59;100105.81;4996118;28;20056;-69
2021/04/09 08:28:11;;;;;;;11.75;5.63;;;;;;;8.86;49.47;100110.34;4996005;28;20053;-69
2021/04/09 08:30:38;;;;;;;16.98;5.97;;;;;;;8.88;49.86;100113.81;4994908;28;20050;-69
2021/04/09 08:33:07;;;;;;;13.70;6.80;;;;;;;8.87;50.01;100112.09;4996021;28;20109;-69
2021/04/09 08:35:33;;;;;;;14.38;6.03;;;;;;;8.90;50.07;100106.59;4995810;28;20065;-69
2021/04/09 08:38:02;;;;;;;16.80;7.40;;;;;;;8.97;49.14;100115.94;4995866;28;20054;-69
2021/04/09 08:40:29;;;;;;;15.73;6.35;;;;;;;8.96;49.63;100115.13;4995516;28;20046;-70
2021/04/09 08:42:55;;;;;;;15.15;6.43;;;;;;;9.06;50.12;100112.78;4995163;28;20050;-70
2021/04/09 08:45:24;;;;;;;11.23;6.32;;;;;;;9.24;50.02;100113.56;4995841;28;20061;-69
2021/04/09 08:47:56;;;;;;;10.68;6.55;;;;;;;9.42;50.74;100120.59;4995720;28;20046;-70
2021/04/09 08:50:23;;;;;;;13.55;7.07;;;;;;;9.40;49.29;100118.03;4995550;28;20064;-69
2021/04/09 08:52:50;;;;;;;13.85;6.85;;;;;;;9.47;49.98;100116.72;4995347;28;20053;-69
2021/04/09 08:55:18;;;;;;;17.77;6.57;;;;;;;9.40;48.76;100115.34;4994251;28;20062;-69
2021/04/09 08:57:46;;;;;;;17.08;7.40;;;;;;;9.33;49.90;100108.66;4994539;28;20132;-69
2021/04/09 09:00:20;;;;;;;18.67;7.20;;;;;;;9.46;50.04;100119.47;4995490;28;20069;-69
2021/04/09 09:02:55;;;;;;;12.98;6.40;;;;;;;9.54;49.66;100121.69;4995550;28;20046;-69
2021/04/09 09:05:33;;;;;;;15.32;6.55;;;;;;;9.54;49.66;100105.72;5004920;28;20057;-69
2021/04/09 09:08:00;;;;;;;14.43;6.88;;;;;;;9.74;49.64;100115.19;5015223;28;20439;-69
2021/04/09 09:10:30;;;;;;;16.88;5.93;;;;;;;9.85;48.64;100120.78;5015018;28;20057;-69
2021/04/09 09:13:04;;;;;;;12.35;6.53;;;;;;;9.85;48.70;100118.09;5015082;28;20450;-69
2021/04/09 09:15:46;;;;;;;15.27;7.65;;;;;;;9.75;47.95;100123.13;5016995;28;20157;-71
2021/04/09 09:18:21;;;;;;;11.80;6.68;;;;;;;9.83;48.73;100106.69;5018360;28;20060;-69
2021/04/09 09:21:16;;;;;;;12.60;6.40;;;;;;;10.09;49.11;100111.41;5018295;28;20359;-69
2021/04/09 09:24:01;;;;;;;20.42;6.80;;;;;;;10.24;48.86;100106.97;5018742;28;20057;-70
2021/04/09 09:26:35;;;;;;;15.27;6.57;;;;;;;10.35;48.64;100109.00;5015505;28;20428;-69
2021/04/09 09:29:28;;;;;;;13.07;6.72;;;;;;;10.36;48.08;100110.69;5015403;28;20057;-69
2021/04/09 09:32:07;;;;;;;13.95;6.28;;;;;;;10.29;49.06;100119.06;5015674;28;20050;-69
2021/04/09 09:34:39;;;;;;;14.13;6.95;;;;;;;10.21;48.58;100109.81;5015767;28;20046;-70
2021/04/09 09:37:16;;;;;;;14.23;6.82;;;;;;;10.28;48.76;100106.69;5013694;28;20454;-70
2021/04/09 09:39:52;;;;;;;14.68;7.00;;;;;;;10.41;49.24;100112.13;5014902;28;20445;-70
2021/04/09 09:42:21;;;;;;;14.20;6.50;;;;;;;10.43;48.02;100120.94;5014861;28;20347;-69
2021/04/09 09:44:50;;;;;;;13.23;6.05;;;;;;;10.55;47.48;100119.31;5014800;28;20058;-69
2021/04/09 09:47:18;;;;;;;13.50;6.88;;;;;;;10.36;46.97;100118.69;5015163;28;20137;-69
2021/04/09 09:52:41;;;;;;;13.05;6.40;;;;;;;10.50;47.88;100117.91;5014770;28;20443;-70
2021/04/09 09:55:13;;;;;;;21.38;6.68;;;;;;;10.40;47.52;100123.75;5018353;28;20064;-69
2021/04/09 09:57:51;;;;;;;12.60;6.63;;;;;;;10.35;47.45;100114.31;5018394;28;20053;-69
2021/04/09 10:00:43;;;;;;;12.60;7.20;;;;;;;10.41;47.27;100121.94;5018688;28;20050;-69
2021/04/09 10:03:34;;;;;;;16.08;7.40;;;;;;;10.48;47.66;100107.31;5018309;28;20070;-69
2021/04/09 10:06:04;;;;;;;19.85;6.72;;;;;;;10.62;48.35;100114.44;5018173;28;20058;-69
2021/04/09 10:08:50;;;;;;;12.15;6.28;;;;;;;10.76;46.93;100110.06;5017994;28;20077;-69
2021/04/09 10:11:19;;;;;;;14.77;6.72;;;;;;;10.60;46.59;100079.00;5018393;28;20057;-70
2021/04/09 10:13:48;;;;;;;11.73;6.05;;;;;;;10.94;46.89;100102.69;5018159;28;20108;-69
2021/04/09 10:16:19;;;;;;;13.30;6.75;;;;;;;10.80;45.84;100106.25;5018300;28;20049;-70
2021/04/09 10:18:53;;;;;;;11.40;6.38;;;;;;;10.69;46.24;100099.75;5018074;28;20053;-69
2021/04/09 10:21:24;;;;;;;11.60;6.45;;;;;;;10.69;46.45;100094.44;5018228;28;20124;-70
2021/04/09 10:24:02;;;;;;;14.80;6.95;;;;;;;10.96;46.12;100098.97;5017879;28;20061;-68
2021/04/09 10:26:28;;;;;;;9.20;5.78;;;;;;;11.03;45.60;100091.44;5017703;28;20057;-69
2021/04/09 10:28:55;;;;;;;19.70;7.35;;;;;;;11.17;45.42;100082.53;5016726;28;20046;-69
2021/04/09 10:31:22;;;;;;;12.38;6.95;;;;;;;11.36;45.53;100081.34;5017670;28;20061;-69
2021/04/09 10:33:51;;;;;;;12.20;6.65;;;;;;;11.39;45.44;100076.66;5017695;28;20053;-70
2021/04/09 10:36:25;;;;;;;13.00;6.80;;;;;;;11.60;45.65;100075.34;5016661;28;20112;-70
2021/04/09 10:38:53;;;;;;;10.18;5.40;;;;;;;11.69;45.36;100080.06;5017493;28;20058;-70
2021/04/09 10:41:30;;;;;;;11.65;5.90;;;;;;;11.81;45.95;100076.56;5017519;28;20054;-71
2021/04/09 10:44:05;;;;;;;11.18;6.18;;;;;;;11.84;45.55;100077.31;5016479;28;20046;-70
2021/04/09 10:46:36;;;;;;;15.30;6.13;;;;;;;11.84;45.59;100075.50;5017497;28;20061;-70
2021/04/09 10:49:10;;;;;;;12.20;5.70;;;;;;;11.80;44.54;100068.63;5017214;28;20050;-70
2021/04/09 10:51:41;;;;;;;13.82;5.13;;;;;;;11.85;45.06;100069.19;5017538;28;20129;-70
2021/04/09 10:54:11;;;;;;;12.70;6.57;;;;;;;11.83;45.89;100063.09;5017589;28;20061;-70
2021/04/09 10:56:39;;;;;;;9.25;5.22;;;;;;;11.97;45.50;100059.47;5017086;28;20050;-71
2021/04/09 10:59:08;;;;;;;10.88;6.00;;;;;;;12.03;44.62;100053.72;5017035;28;20053;-70
2021/04/09 11:01:36;;;;;;;11.45;6.80;;;;;;;12.05;45.32;100061.66;5017049;28;20317;-70
2021/04/09 11:04:03;;;;;;;11.93;5.68;;;;;;;12.23;45.52;100054.16;5015897;28;20352;-71
2021/04/09 11:06:29;;;;;;;12.65;6.35;;;;;;;12.40;45.69;100060.13;5016500;28;20058;-70
2021/04/09 11:09:03;;;;;;;13.57;5.93;;;;;;;12.52;44.69;100053.91;5017017;28;20049;-70
2021/04/09 11:11:33;;;;;;;12.88;5.43;;;;;;;12.55;44.64;100053.72;5017075;28;20058;-71
2021/04/09 11:14:08;;;;;;;9.15;5.50;;;;;;;12.90;44.74;100044.97;5016826;28;20053;-70
2021/04/09 11:16:52;;;;;;;17.02;6.22;;;;;;;13.00;43.54;100038.91;5015763;28;20057;-71
2021/04/09 11:19:38;;;;;;;17.38;6.57;;;;;;;12.76;43.85;100037.06;5015951;28;20046;-70
2021/04/09 11:22:07;;;;;;;7.00;4.68;;;;;;;12.70;43.36;100040.19;5016685;28;20094;-71
2021/04/09 11:24:37;;;;;;;11.20;5.43;;;;;;;12.75;42.69;100041.56;5016856;28;20074;-70
2021/04/09 11:27:22;;;;;;;11.27;5.43;;;;;;;12.92;42.77;100039.50;5016671;28;20054;-70
2021/04/09 11:29:49;;;;;;;9.85;5.80;;;;;;;12.88;43.86;100020.13;5016377;28;20049;-70
2021/04/09 11:32:19;;;;;;;9.23;4.93;;;;;;;12.93;43.42;100035.84;5016488;28;20091;-69
2021/04/09 11:34:48;;;;;;;10.65;5.25;;;;;;;12.81;43.53;100021.50;5016348;28;20045;-69
2021/04/09 11:37:16;;;;;;;10.77;4.80;;;;;;;13.08;43.89;100022.28;5015113;28;20100;-69